Time;durP1;ratioP1;P1;durP2;ratioP2;P2;SDS_P1;SDS_P2;PMS_P1;PMS_P2;Temp;Humidity;BMP_temperature;BMP_pressure;BME280_temperature;BME280_humidity;BME280_pressure;Samples;Min_cycle;Max_cycle;Signal;HPM_P1;HPM_P2
2023/06/04 00:02:24;;;;;;;43.97;3.47;;;;;;;23.43;52.36;99871.78;7314233;19;129040;-41
2023/06/04 00:04:49;;;;;;;43.85;3.35;;;;;;;23.35;51.75;99849.84;7316088;19;129882;-41
2023/06/04 00:07:14;;;;;;;18.93;2.40;;;;;;;23.43;52.44;99865.69;7313953;19;130036;-40
2023/06/04 00:09:40;;;;;;;51.57;4.07;;;;;;;23.43;52.71;99866.53;7313331;19;130483;-41
2023/06/04 00:12:06;;;;;;;55.17;3.93;;;;;;;23.42;52.23;99859.63;7313446;19;129067;-41
2023/06/04 00:14:31;;;;;;;34.50;3.07;;;;;;;23.37;51.57;99856.59;7312816;19;129115;-40
2023/06/04 00:16:57;;;;;;;37.03;3.17;;;;;;;23.42;52.51;99859.63;7313641;19;129306;-41
2023/06/04 00:19:22;;;;;;;44.23;3.80;;;;;;;23.43;52.54;99858.66;7315628;19;130154;-41
2023/06/04 00:21:47;;;;;;;66.35;4.45;;;;;;;23.43;52.16;99866.53;7312848;19;129418;-40
2023/06/04 00:24:13;;;;;;;39.17;3.17;;;;;;;23.42;52.25;99862.25;7312882;19;129692;-39
2023/06/04 00:26:38;;;;;;;40.63;3.47;;;;;;;23.39;52.28;99853.84;7314894;19;129424;-42
2023/06/04 00:29:04;;;;;;;17.90;2.22;;;;;;;23.42;52.06;99859.63;7312972;19;128967;-40
2023/06/04 00:31:29;;;;;;;46.05;3.42;;;;;;;23.43;52.15;99853.41;7314098;19;129888;-40
2023/06/04 00:33:54;;;;;;;39.10;3.17;;;;;;;23.44;52.11;99857.69;7312242;19;129226;-41
2023/06/04 00:36:20;;;;;;;31.70;2.67;;;;;;;23.44;51.54;99849.81;7313863;19;129268;-41
2023/06/04 00:38:46;;;;;;;36.83;2.90;;;;;;;23.45;51.95;99855.88;7314618;19;128990;-41
2023/06/04 00:41:11;;;;;;;60.60;3.97;;;;;;;23.32;52.42;99827.34;7313637;19;129023;-40
2023/06/04 00:43:36;;;;;;;72.15;4.88;;;;;;;23.44;51.90;99852.44;7312141;19;129571;-40
2023/06/04 00:46:03;;;;;;;48.78;3.80;;;;;;;23.44;52.05;99849.81;7313651;19;128986;-38
2023/06/04 00:48:30;;;;;;;50.13;3.92;;;;;;;23.40;51.92;99840.59;7314003;19;128969;-37
2023/06/04 00:50:56;;;;;;;50.78;4.05;;;;;;;23.42;51.74;99838.63;7311717;19;128847;-41
2023/06/04 00:53:23;;;;;;;48.40;3.83;;;;;;;23.42;51.73;99833.38;7312991;19;129756;-41
2023/06/04 00:55:49;;;;;;;8.45;2.03;;;;;;;23.43;52.51;99837.66;7314525;19;131726;-41
2023/06/04 00:58:15;;;;;;;40.07;3.17;;;;;;;23.45;52.11;99842.78;7313186;19;129595;-40
2023/06/04 01:00:42;;;;;;;43.63;3.20;;;;;;;23.43;52.23;99835.03;7314376;19;128978;-40
2023/06/04 01:03:18;;;;;;;32.17;2.83;;;;;;;23.44;52.07;99841.94;7312908;19;129440;-41
2023/06/04 01:05:59;;;;;;;51.05;3.92;;;;;;;23.43;51.96;99835.03;7312579;19;129112;-41
2023/06/04 01:08:26;;;;;;;30.60;2.65;;;;;;;23.45;51.49;99834.91;7313000;19;130082;-41
2023/06/04 01:10:55;;;;;;;32.17;2.72;;;;;;;23.43;51.89;99829.81;7310781;19;129586;-38
2023/06/04 01:13:21;;;;;;;61.75;4.20;;;;;;;23.39;52.41;99828.44;7312110;19;130932;-38
2023/06/04 01:15:47;;;;;;;47.70;3.63;;;;;;;23.42;51.60;99833.38;7310335;19;129895;-41
2023/06/04 01:18:27;;;;;;;29.52;2.70;;;;;;;23.43;52.30;99828.97;7311294;19;129513;-40
2023/06/04 01:21:07;;;;;;;41.13;3.20;;;;;;;23.41;51.99;99823.03;7311673;19;129398;-41
2023/06/04 01:23:47;;;;;;;35.90;3.28;;;;;;;23.43;52.32;99832.44;7312305;19;129529;-39
2023/06/04 01:26:13;;;;;;;41.03;3.17;;;;;;;23.41;51.66;99826.50;7312104;19;130077;-39
2023/06/04 01:28:39;;;;;;;66.20;4.43;;;;;;;23.43;52.09;99829.81;7313720;19;128864;-40
2023/06/04 01:31:07;;;;;;;62.83;4.78;;;;;;;23.39;52.23;99825.81;7310284;19;130281;-39
2023/06/04 01:33:33;;;;;;;38.17;3.08;;;;;;;23.41;51.67;99826.50;7310930;19;130446;-41
2023/06/04 01:35:58;;;;;;;24.60;2.53;;;;;;;23.42;51.90;99830.75;7313859;19;130975;-41
2023/06/04 01:38:24;;;;;;;48.50;3.33;;;;;;;23.44;51.86;99826.19;7312885;19;128956;-41
2023/06/04 01:40:50;;;;;;;28.67;2.60;;;;;;;23.44;52.01;99833.22;7312997;19;128980;-41
2023/06/04 01:43:16;;;;;;;33.83;3.13;;;;;;;23.45;51.64;99827.03;7311641;19;129558;-40
2023/06/04 01:45:41;;;;;;;41.35;3.20;;;;;;;23.42;51.98;99833.38;7311019;19;130226;-40
2023/06/04 01:48:07;;;;;;;71.13;4.77;;;;;;;23.44;52.34;99830.59;7310778;19;129629;-40
2023/06/04 01:50:33;;;;;;;48.23;3.57;;;;;;;23.31;51.94;99806.50;7311223;19;128940;-41
2023/06/04 01:52:58;;;;;;;31.97;2.83;;;;;;;23.43;51.51;99828.97;7310554;19;130700;-39
2023/06/04 01:55:29;;;;;;;66.87;4.43;;;;;;;23.44;51.83;99831.44;7310747;19;129255;-42
2023/06/04 01:57:54;;;;;;;71.53;5.00;;;;;;;23.32;51.85;99811.59;7310963;19;128839;-40
2023/06/04 02:00:20;;;;;;;28.02;2.88;;;;;;;23.41;52.46;99826.50;7312129;19;128913;-40
2023/06/04 02:02:47;;;;;;;42.05;3.20;;;;;;;23.42;52.00;99833.38;7311665;19;129429;-41
2023/06/04 02:05:13;;;;;;;58.33;3.95;;;;;;;23.43;51.72;99839.47;7310095;19;130510;-39
2023/06/04 02:07:40;;;;;;;39.75;3.00;;;;;;;23.42;52.01;99836.00;7311675;19;129232;-39
2023/06/04 02:10:10;;;;;;;75.13;5.22;;;;;;;23.44;52.46;99831.44;7310211;19;130032;-41
2023/06/04 02:12:41;;;;;;;35.35;3.08;;;;;;;23.43;52.38;99829.81;7309544;19;131373;-40
2023/06/04 02:15:10;;;;;;;81.93;4.95;;;;;;;23.43;51.40;99836.84;7310580;19;129820;-41
2023/06/04 02:17:42;;;;;;;50.42;3.65;;;;;;;23.42;52.16;99833.38;7311975;19;129700;-40
2023/06/04 02:20:09;;;;;;;58.75;4.00;;;;;;;23.42;52.25;99833.38;7310595;19;129162;-40
2023/06/04 02:22:35;;;;;;;26.70;2.55;;;;;;;23.43;51.92;99835.03;7310862;19;130276;-41
2023/06/04 02:25:00;;;;;;;39.67;3.15;;;;;;;23.40;51.51;99827.47;7310502;19;130185;-42
2023/06/04 02:27:25;;;;;;;67.73;4.27;;;;;;;23.43;51.76;99832.44;7312171;19;129246;-39
2023/06/04 02:29:51;;;;;;;38.67;3.13;;;;;;;23.41;52.14;99831.75;7317351;19;129771;-42
2023/06/04 02:32:16;;;;;;;48.90;3.42;;;;;;;23.41;52.18;99839.59;7316617;19;129784;-40
2023/06/04 02:34:42;;;;;;;28.53;2.57;;;;;;;23.38;52.04;99829.41;7318112;19;129203;-39
2023/06/04 02:37:07;;;;;;;60.30;4.13;;;;;;;23.43;51.58;99839.47;7316649;19;128878;-41
2023/06/04 02:39:33;;;;;;;40.77;3.57;;;;;;;23.41;51.91;99836.97;7318332;19;129264;-42
2023/06/04 02:41:58;;;;;;;53.95;3.67;;;;;;;23.43;51.87;99839.47;7316392;19;129492;-37
2023/06/04 02:44:23;;;;;;;39.07;3.23;;;;;;;23.38;51.61;99837.28;7315242;19;129567;-41
2023/06/04 02:46:49;;;;;;;68.97;4.30;;;;;;;23.40;51.68;99845.84;7316783;19;128988;-40
2023/06/04 02:49:14;;;;;;;34.33;2.83;;;;;;;23.37;52.01;99837.44;7318333;19;129446;-40
2023/06/04 02:51:40;;;;;;;29.15;2.72;;;;;;;23.39;51.71;99844.16;7316550;19;129481;-39
2023/06/04 02:54:06;;;;;;;33.20;3.05;;;;;;;23.30;52.17;99831.09;7315009;19;129389;-41
2023/06/04 02:56:31;;;;;;;47.30;3.40;;;;;;;23.38;51.86;99839.91;7318808;19;129199;-40
2023/06/04 02:58:56;;;;;;;42.27;3.13;;;;;;;23.36;51.82;99844.47;7317846;19;129354;-42
2023/06/04 03:01:26;;;;;;;51.50;3.65;;;;;;;23.38;52.38;99845.16;7316673;19;130373;-40
2023/06/04 03:03:53;;;;;;;83.07;5.35;;;;;;;23.39;51.88;99844.16;7313695;19;130503;-40
2023/06/04 03:06:22;;;;;;;50.50;3.47;;;;;;;23.27;51.80;99829.56;7315793;19;130572;-40
2023/06/04 03:08:48;;;;;;;35.90;2.88;;;;;;;23.38;51.37;99845.16;7317092;19;131135;-39
2023/06/04 03:11:14;;;;;;;30.42;2.58;;;;;;;23.37;51.89;99848.72;7314326;19;129589;-40
2023/06/04 03:13:40;;;;;;;34.17;3.07;;;;;;;23.36;51.55;99844.47;7315766;19;129152;-41
2023/06/04 03:16:09;;;;;;;45.88;3.22;;;;;;;23.37;51.47;99846.09;7315997;19;129544;-38
2023/06/04 03:18:39;;;;;;;27.25;2.58;;;;;;;23.28;51.53;99833.03;7316500;19;129176;-42
2023/06/04 03:21:05;;;;;;;50.90;3.65;;;;;;;23.39;51.23;99852.03;7313611;19;129823;-40
2023/06/04 03:23:31;;;;;;;27.85;2.60;;;;;;;23.37;51.38;99846.09;7315629;19;129289;-40
2023/06/04 03:25:57;;;;;;;41.92;3.17;;;;;;;23.38;51.84;99845.16;7317170;19;129180;-41
2023/06/04 03:28:22;;;;;;;36.40;2.90;;;;;;;23.38;51.18;99847.78;7315012;19;130142;-40
2023/06/04 03:30:48;;;;;;;29.85;2.60;;;;;;;23.36;52.06;99844.47;7314499;19;129651;-40
2023/06/04 03:33:13;;;;;;;27.25;2.75;;;;;;;23.39;51.84;99859.91;7313814;19;129685;-37
2023/06/04 03:35:41;;;;;;;50.30;3.60;;;;;;;23.25;51.54;99842.81;7316293;19;128961;-40
2023/06/04 03:38:06;;;;;;;30.98;2.47;;;;;;;23.36;51.98;99854.97;7317379;19;128790;-39
2023/06/04 03:40:32;;;;;;;29.00;2.47;;;;;;;23.38;51.37;99857.44;7316465;19;129503;-41
2023/06/04 03:42:57;;;;;;;40.77;3.17;;;;;;;23.39;51.43;99864.34;7314883;19;130904;-41
2023/06/04 03:45:22;;;;;;;36.78;3.25;;;;;;;23.35;51.47;99858.56;7316595;19;128832;-39
2023/06/04 03:47:48;;;;;;;51.78;3.60;;;;;;;23.36;51.23;99854.13;7315757;19;128896;-41
2023/06/04 03:50:13;;;;;;;39.40;3.00;;;;;;;23.37;51.56;99861.03;7314009;19;129101;-40
2023/06/04 03:52:38;;;;;;;52.50;3.67;;;;;;;23.38;51.54;99862.69;7313674;19;129350;-41
2023/06/04 03:55:04;;;;;;;45.10;3.20;;;;;;;23.37;51.08;99864.47;7314836;19;129115;-40
2023/06/04 03:57:30;;;;;;;39.67;2.83;;;;;;;23.34;51.27;99864.75;7315834;19;129064;-42
2023/06/04 03:59:56;;;;;;;35.95;2.75;;;;;;;23.36;51.21;99868.06;7316508;19;129493;-40
2023/06/04 04:02:21;;;;;;;55.37;3.50;;;;;;;23.36;51.65;99868.06;7313516;19;130165;-40
2023/06/04 04:04:47;;;;;;;42.03;3.23;;;;;;;23.35;51.91;99874.31;7314219;19;129135;-39
2023/06/04 04:07:12;;;;;;;66.97;4.83;;;;;;;23.36;51.64;99873.31;7312385;19;130239;-41
2023/06/04 04:09:37;;;;;;;28.03;2.53;;;;;;;23.36;51.30;99875.94;7312918;19;129485;-40
2023/06/04 04:12:04;;;;;;;67.57;4.63;;;;;;;23.36;51.71;99875.94;7313563;19;131179;-41
2023/06/04 04:14:29;;;;;;;141.25;8.15;;;;;;;23.38;52.13;99876.63;7312164;19;131350;-41
2023/06/04 04:16:55;;;;;;;28.42;2.45;;;;;;;23.37;51.85;99872.34;7312750;19;130876;-40
2023/06/04 04:19:20;;;;;;;35.83;3.03;;;;;;;23.36;51.21;99878.56;7315023;19;129570;-41
2023/06/04 04:21:48;;;;;;;83.40;5.13;;;;;;;23.27;51.79;99865.50;7312992;19;129438;-42
2023/06/04 04:24:35;;;;;;;34.10;2.75;;;;;;;23.38;51.89;99881.88;7314625;19;128988;-42
2023/06/04 04:27:03;;;;;;;43.90;3.03;;;;;;;23.36;51.50;99880.34;7316159;19;129392;-41
2023/06/04 04:29:32;;;;;;;31.88;2.67;;;;;;;23.22;51.10;99858.84;7313959;19;129853;-42
2023/06/04 04:31:58;;;;;;;46.15;3.65;;;;;;;23.36;51.19;99881.19;7312543;19;130159;-42
2023/06/04 04:34:26;;;;;;;57.10;3.58;;;;;;;23.36;52.04;99882.97;7312508;19;128765;-41
2023/06/04 04:36:54;;;;;;;29.05;2.17;;;;;;;23.33;51.60;99881.50;7316488;19;128627;-41
2023/06/04 04:39:24;;;;;;;36.80;2.83;;;;;;;23.36;51.54;99886.44;7314288;19;130016;-42
2023/06/04 04:41:49;;;;;;;36.58;3.08;;;;;;;23.34;51.88;99880.50;7311254;19;130339;-40
2023/06/04 04:44:15;;;;;;;70.78;4.55;;;;;;;23.36;51.33;99875.13;7309234;19;130303;-39
2023/06/04 04:46:40;;;;;;;40.07;3.13;;;;;;;23.33;51.24;99881.50;7314635;19;129042;-42
2023/06/04 04:49:05;;;;;;;52.00;3.95;;;;;;;23.34;51.32;99880.50;7311474;19;129478;-41
2023/06/04 04:51:31;;;;;;;40.07;3.33;;;;;;;23.34;51.71;99877.06;7309473;19;129330;-41
2023/06/04 04:54:00;;;;;;;48.70;3.30;;;;;;;23.34;51.22;99874.47;7313008;19;128954;-40
2023/06/04 04:56:26;;;;;;;31.65;2.50;;;;;;;23.34;51.57;99883.13;7311547;19;129403;-39
2023/06/04 04:58:52;;;;;;;28.50;2.47;;;;;;;23.36;51.17;99881.19;7313373;19;129708;-40
2023/06/04 05:01:17;;;;;;;48.37;3.50;;;;;;;23.33;51.93;99881.50;7311030;19;129723;-40
2023/06/04 05:03:42;;;;;;;36.63;2.97;;;;;;;23.33;51.85;99884.13;7311300;19;129222;-40
2023/06/04 05:06:08;;;;;;;43.47;3.47;;;;;;;23.34;51.47;99888.38;7312427;19;129552;-42
2023/06/04 05:08:33;;;;;;;30.77;2.55;;;;;;;23.34;51.58;99885.75;7314216;19;129076;-41
2023/06/04 05:10:58;;;;;;;48.73;3.53;;;;;;;23.33;51.12;99889.38;7308772;19;130033;-41
2023/06/04 05:13:24;;;;;;;25.80;2.23;;;;;;;23.34;51.89;99883.13;7311867;19;129106;-40
2023/06/04 05:15:52;;;;;;;39.87;2.97;;;;;;;23.34;51.55;99883.13;7313576;19;129038;-41
2023/06/04 05:18:20;;;;;;;42.95;3.72;;;;;;;23.31;51.16;99882.59;7311485;19;129161;-41
2023/06/04 05:20:46;;;;;;;31.08;2.47;;;;;;;23.19;51.86;99869.63;7313437;19;131011;-42
2023/06/04 05:23:12;;;;;;;42.27;3.07;;;;;;;23.29;51.14;99884.56;7313587;19;129174;-37
2023/06/04 05:25:38;;;;;;;42.40;3.17;;;;;;;23.24;51.00;99883.13;7311258;19;130786;-41
2023/06/04 05:28:05;;;;;;;43.77;3.27;;;;;;;23.30;51.27;99891.44;7312377;19;129520;-39
2023/06/04 05:30:31;;;;;;;81.13;5.38;;;;;;;23.29;51.44;99895.84;7308148;19;129763;-39
2023/06/04 05:32:57;;;;;;;50.97;3.27;;;;;;;23.31;51.63;99893.91;7313135;19;129354;-40
2023/06/04 05:35:22;;;;;;;41.43;2.93;;;;;;;23.29;51.83;99890.59;7307418;19;130307;-40
2023/06/04 05:37:53;;;;;;;65.85;4.28;;;;;;;23.24;51.32;99884.94;7310188;19;129560;-39
2023/06/04 05:40:21;;;;;;;54.75;3.90;;;;;;;23.30;51.60;99897.53;7309852;19;129601;-41
2023/06/04 05:42:48;;;;;;;77.78;4.30;;;;;;;23.29;51.70;99898.47;7309784;19;129181;-39
2023/06/04 05:45:13;;;;;;;111.13;6.60;;;;;;;23.31;51.60;99901.78;7310560;19;128914;-41
2023/06/04 05:47:39;;;;;;;31.60;2.27;;;;;;;23.31;51.48;99898.31;7308797;19;129027;-40
2023/06/04 05:50:05;;;;;;;41.22;2.92;;;;;;;23.19;51.93;99885.38;7309768;19;129276;-41
2023/06/04 05:52:32;;;;;;;58.70;3.63;;;;;;;23.30;51.27;99902.78;7309193;19;129207;-41
2023/06/04 05:54:57;;;;;;;29.88;2.17;;;;;;;23.26;51.55;99903.97;7312820;19;128831;-38
2023/06/04 05:57:22;;;;;;;39.97;3.00;;;;;;;23.29;51.68;99911.59;7309705;19;129145;-41
2023/06/04 05:59:48;;;;;;;53.30;3.57;;;;;;;23.29;50.97;99908.97;7310486;19;129650;-41
2023/06/04 06:02:14;;;;;;;60.25;3.85;;;;;;;23.29;51.76;99898.47;7311452;19;129727;-39
2023/06/04 06:04:40;;;;;;;13.30;1.77;;;;;;;23.29;51.42;99911.59;7307918;19;129956;-40
2023/06/04 06:07:05;;;;;;;42.33;3.20;;;;;;;23.29;51.28;99916.84;7310132;19;129270;-40
2023/06/04 06:09:31;;;;;;;57.83;3.70;;;;;;;23.16;51.31;99890.06;7311500;19;130313;-41
2023/06/04 06:11:56;;;;;;;212.27;12.02;;;;;;;23.29;51.79;99908.97;7305075;19;130121;-40
2023/06/04 06:14:23;;;;;;;40.22;3.00;;;;;;;23.27;51.51;99903.03;7306585;19;129025;-40
2023/06/04 06:16:48;;;;;;;36.13;2.70;;;;;;;23.28;51.22;99909.13;7310923;19;129199;-39
2023/06/04 06:19:14;;;;;;;67.35;4.03;;;;;;;23.26;51.79;99906.59;7310632;19;129485;-39
2023/06/04 06:21:39;;;;;;;36.65;2.65;;;;;;;23.16;51.58;99895.31;7310995;19;129114;-40
2023/06/04 06:24:05;;;;;;;29.15;2.50;;;;;;;23.28;51.91;99917.81;7308237;19;129457;-40
2023/06/04 06:26:31;;;;;;;30.67;2.37;;;;;;;23.21;51.74;99903.59;7310222;19;129300;-41
2023/06/04 06:28:56;;;;;;;61.87;3.77;;;;;;;23.25;52.20;99921.50;7305466;19;130340;-39
2023/06/04 06:31:22;;;;;;;47.13;3.25;;;;;;;23.25;51.18;99913.63;7305884;19;130618;-41
2023/06/04 06:33:47;;;;;;;32.30;2.53;;;;;;;23.26;51.00;99914.47;7308491;19;129522;-42
2023/06/04 06:36:13;;;;;;;48.08;3.50;;;;;;;23.30;51.44;99926.38;7308445;19;129337;-40
2023/06/04 06:38:38;;;;;;;104.00;5.67;;;;;;;23.25;51.09;99925.94;7309961;19;129630;-40
2023/06/04 06:41:05;;;;;;;35.53;2.77;;;;;;;23.28;50.73;99930.09;7309702;19;128881;-42
2023/06/04 06:43:31;;;;;;;62.80;3.90;;;;;;;23.26;51.24;99922.34;7308301;19;129148;-42
2023/06/04 06:45:57;;;;;;;27.15;2.10;;;;;;;23.16;51.45;99906.63;7308173;19;129336;-39
2023/06/04 06:48:22;;;;;;;31.97;2.40;;;;;;;23.27;52.04;99929.25;7312287;19;129140;-40
2023/06/04 06:50:48;;;;;;;34.70;2.43;;;;;;;23.26;51.49;99927.59;7308242;19;129011;-40
2023/06/04 06:53:13;;;;;;;33.13;2.60;;;;;;;23.26;50.91;99927.59;7308658;19;128935;-39
2023/06/04 06:55:38;;;;;;;30.83;2.25;;;;;;;23.27;51.69;99931.88;7308859;19;130198;-40
2023/06/04 06:58:04;;;;;;;74.95;4.88;;;;;;;23.22;51.58;99921.78;7308871;19;129294;-41
2023/06/04 07:00:29;;;;;;;78.78;4.78;;;;;;;23.24;52.19;99935.59;7306721;19;129559;-39
2023/06/04 07:02:55;;;;;;;18.80;1.75;;;;;;;23.24;51.99;99935.59;7310674;19;129073;-41
2023/06/04 07:05:20;;;;;;;73.35;4.75;;;;;;;23.24;52.01;99932.97;7308002;19;129279;-41
2023/06/04 07:07:46;;;;;;;40.30;2.80;;;;;;;23.27;52.14;99928.47;7310226;19;129641;-37
2023/06/04 07:10:12;;;;;;;36.30;2.53;;;;;;;23.25;51.96;99926.75;7308915;19;129126;-39
2023/06/04 07:12:38;;;;;;;39.63;2.60;;;;;;;23.21;51.70;99920.16;7309508;19;129210;-40
2023/06/04 07:15:05;;;;;;;44.20;2.97;;;;;;;23.22;51.29;99923.63;7317377;19;129308;-42
2023/06/04 07:17:30;;;;;;;19.40;1.73;;;;;;;23.27;51.98;99931.09;7317404;19;130584;-39
2023/06/04 07:19:56;;;;;;;105.88;6.25;;;;;;;23.27;51.47;99928.47;7316366;19;129361;-39
2023/06/04 07:22:21;;;;;;;36.10;2.47;;;;;;;23.27;51.71;99933.72;7317394;19;130104;-41
2023/06/04 07:24:46;;;;;;;38.20;2.67;;;;;;;23.18;52.57;99936.19;7315740;19;129496;-39
2023/06/04 07:27:13;;;;;;;37.63;2.80;;;;;;;23.22;51.45;99926.25;7317058;19;129766;-41
2023/06/04 07:29:39;;;;;;;;;;;;;;;23.31;53.13;99933.28;7311606;19;131170;-38
2023/06/04 07:32:05;;;;;;;27.83;2.10;;;;;;;23.13;51.65;99912.16;7312636;19;128961;-40
2023/06/04 07:34:30;;;;;;;40.63;2.73;;;;;;;23.24;52.11;99929.53;7314608;19;129517;-41
2023/06/04 07:36:55;;;;;;;11.43;1.42;;;;;;;23.24;51.57;99929.53;7317479;19;129644;-40
2023/06/04 07:39:21;;;;;;;81.07;4.88;;;;;;;23.17;51.55;99925.84;7313995;19;130057;-40
2023/06/04 07:41:47;;;;;;;36.27;2.70;;;;;;;23.30;52.69;99939.50;7311386;19;129362;-39
2023/06/04 07:44:12;;;;;;;47.45;3.03;;;;;;;23.24;52.16;99937.41;7313336;19;129181;-42
2023/06/04 07:46:37;;;;;;;50.72;3.30;;;;;;;23.14;52.87;99932.19;7317540;19;129528;-41
2023/06/04 07:49:03;;;;;;;18.30;1.83;;;;;;;23.13;53.03;99932.31;7316609;19;129098;-39
2023/06/04 07:51:28;;;;;;;36.25;2.60;;;;;;;23.17;52.17;99933.69;7312762;19;129058;-40
2023/06/04 07:53:53;;;;;;;45.43;2.83;;;;;;;23.21;52.37;99928.03;7314215;19;129106;-41
2023/06/04 07:56:19;;;;;;;40.08;2.97;;;;;;;23.20;52.06;99933.41;7316975;19;129311;-42
2023/06/04 07:58:46;;;;;;;43.63;2.93;;;;;;;23.20;51.28;99934.22;7312661;19;129864;-40
2023/06/04 08:01:12;;;;;;;53.38;3.38;;;;;;;23.22;52.16;99936.72;7314376;19;129023;-40
2023/06/04 08:03:38;;;;;;;56.83;3.45;;;;;;;23.09;51.50;99915.19;7310810;19;129412;-40
2023/06/04 08:06:03;;;;;;;19.88;1.77;;;;;;;23.24;51.43;99926.91;7316079;19;129796;-40
2023/06/04 08:08:29;;;;;;;35.40;2.37;;;;;;;23.25;51.62;99925.94;7315330;19;129113;-41
2023/06/04 08:10:54;;;;;;;60.60;4.00;;;;;;;23.04;52.83;99909.53;7311333;19;130717;-39
2023/06/04 08:13:20;;;;;;;39.00;2.50;;;;;;;23.01;52.21;99926.41;7314836;19;129216;-40
2023/06/04 08:15:46;;;;;;;34.00;2.33;;;;;;;23.08;52.36;99930.13;7314718;19;129788;-42
2023/06/04 08:18:11;;;;;;;70.57;4.57;;;;;;;23.14;52.69;99929.56;7314507;19;129624;-41
2023/06/04 08:20:36;;;;;;;87.03;5.30;;;;;;;23.13;53.55;99921.81;7311862;19;130485;-41
2023/06/04 08:23:02;;;;;;;118.93;6.30;;;;;;;23.15;53.23;99922.53;7312994;19;129668;-41
2023/06/04 08:25:27;;;;;;;45.70;3.07;;;;;;;23.17;52.34;99923.22;7299945;19;130785;-40
2023/06/04 08:27:53;;;;;;;30.90;2.30;;;;;;;23.23;52.44;99927.88;7310109;19;129385;-41
2023/06/04 08:30:18;;;;;;;145.98;8.05;;;;;;;23.20;52.68;99917.69;7306746;19;129603;-39
2023/06/04 08:32:44;;;;;;;38.15;2.70;;;;;;;23.20;52.53;99922.94;7310136;19;129816;-42
2023/06/04 08:35:09;;;;;;;30.52;2.30;;;;;;;23.12;51.79;99910.50;7316066;19;129125;-41
2023/06/04 08:37:35;;;;;;;36.70;2.50;;;;;;;23.03;52.56;99894.78;7313813;19;129283;-40
2023/06/04 08:40:01;;;;;;;71.05;4.30;;;;;;;23.10;52.91;99912.47;7314644;19;128974;-39
2023/06/04 08:42:30;;;;;;;19.17;1.67;;;;;;;23.14;53.27;99918.22;7312730;19;129569;-41
2023/06/04 08:44:57;;;;;;;22.05;1.85;;;;;;;23.13;52.36;99922.66;7313255;19;131308;-40
2023/06/04 08:47:28;;;;;;;47.75;3.05;;;;;;;23.04;52.64;99901.69;7313061;19;129190;-40
2023/06/04 08:49:58;;;;;;;64.50;3.72;;;;;;;23.18;52.37;99916.97;7311063;19;129454;-37
2023/06/04 08:52:25;;;;;;;40.85;2.70;;;;;;;23.14;52.42;99908.56;7308275;19;129111;-39
2023/06/04 08:54:51;;;;;;;31.55;2.22;;;;;;;23.22;52.55;99927.03;7311575;19;129587;-41
2023/06/04 08:57:19;;;;;;;;;;;;;;;23.30;52.96;99923.75;7312810;19;130232;-40
2023/06/04 08:59:45;;;;;;;36.33;2.33;;;;;;;23.22;52.62;99910.50;7314001;19;129355;-40
2023/06/04 09:02:12;;;;;;;37.70;2.38;;;;;;;23.23;51.77;99920.84;7313968;19;129646;-40
2023/06/04 09:04:39;;;;;;;53.63;3.65;;;;;;;23.10;52.86;99901.13;7309107;19;129557;-41
2023/06/04 09:07:05;;;;;;;24.73;1.92;;;;;;;23.20;51.71;99923.72;7314251;19;129753;-39
2023/06/04 09:09:33;;;;;;;46.30;2.88;;;;;;;23.18;52.59;99916.97;7314558;19;129769;-40
2023/06/04 09:12:03;;;;;;;42.40;2.58;;;;;;;23.08;53.32;99924.03;7312858;19;130378;-41
2023/06/04 09:14:28;;;;;;;33.10;2.38;;;;;;;23.13;52.80;99921.81;7307819;19;131822;-41
2023/06/04 09:16:58;;;;;;;35.40;2.53;;;;;;;23.13;52.96;99913.97;7313880;19;129032;-41
2023/06/04 09:19:24;;;;;;;40.63;2.72;;;;;;;23.15;53.08;99930.38;7312466;19;128930;-40
2023/06/04 09:21:55;;;;;;;66.00;3.95;;;;;;;23.03;53.19;99905.28;7313358;19;129365;-40
2023/06/04 09:24:22;;;;;;;28.92;1.90;;;;;;;23.10;52.88;99927.38;7312517;19;129348;-41
2023/06/04 09:26:48;;;;;;;23.02;1.67;;;;;;;23.12;52.99;99935.91;7312624;19;129093;-39
2023/06/04 09:29:15;;;;;;;37.40;2.65;;;;;;;23.14;51.91;99928.72;7314894;19;129016;-41
2023/06/04 09:31:40;;;;;;;67.85;3.85;;;;;;;23.15;52.60;99930.38;7305981;19;129341;-39
2023/06/04 09:34:06;;;;;;;49.60;3.43;;;;;;;23.13;52.78;99925.28;7307938;19;130411;-41
2023/06/04 09:36:35;;;;;;;18.53;1.83;;;;;;;23.13;53.43;99927.91;7312618;19;129126;-42
2023/06/04 09:39:15;;;;;;;35.53;2.40;;;;;;;23.16;52.87;99924.16;7310794;19;130242;-39
2023/06/04 09:41:40;;;;;;;40.25;2.55;;;;;;;23.15;52.24;99925.16;7308861;19;129661;-40
2023/06/04 09:44:10;;;;;;;46.10;2.88;;;;;;;23.07;52.61;99904.84;7312260;19;129585;-40
2023/06/04 09:46:35;;;;;;;52.88;3.53;;;;;;;23.16;52.38;99921.53;7312672;19;128801;-40
2023/06/04 09:49:03;;;;;;;34.15;2.13;;;;;;;23.16;52.52;99921.53;7312906;19;129314;-40
2023/06/04 09:51:30;;;;;;;39.55;2.33;;;;;;;23.01;52.35;99901.97;7309911;19;129633;-40
2023/06/04 09:53:59;;;;;;;45.40;2.92;;;;;;;23.13;52.13;99912.16;7310101;19;130268;-39
2023/06/04 09:56:26;;;;;;;45.60;2.95;;;;;;;23.13;51.72;99913.97;7310557;19;129162;-40
2023/06/04 09:58:57;;;;;;;33.05;2.28;;;;;;;23.13;51.41;99908.72;7311853;19;129236;-39
2023/06/04 10:01:26;;;;;;;66.03;3.95;;;;;;;23.13;51.51;99911.34;7310380;19;130060;-42
2023/06/04 10:03:54;;;;;;;45.72;2.85;;;;;;;23.12;50.24;99913.13;7309189;19;129883;-40
2023/06/04 10:06:21;;;;;;;33.95;2.38;;;;;;;23.08;50.33;99910.94;7313359;19;129754;-40
2023/06/04 10:08:49;;;;;;;46.28;3.08;;;;;;;23.12;49.56;99914.94;7311447;19;129395;-40
2023/06/04 10:11:21;;;;;;;48.58;3.10;;;;;;;23.10;49.78;99914.25;7309664;19;129154;-39
2023/06/04 10:14:02;;;;;;;54.47;3.38;;;;;;;23.13;50.29;99912.16;7310190;19;129832;-39
2023/06/04 10:16:30;;;;;;;49.13;2.75;;;;;;;23.08;47.80;99917.00;7312649;19;128851;-41
2023/06/04 10:18:57;;;;;;;33.38;2.33;;;;;;;23.07;48.71;99917.16;7313672;19;129549;-40
2023/06/04 10:21:23;;;;;;;;;;;;;;;23.16;49.95;99916.28;7311966;19;129212;-42
2023/06/04 10:23:49;;;;;;;5.47;0.80;;;;;;;23.10;48.81;99911.63;7311441;19;129169;-39
2023/06/04 10:26:15;;;;;;;;;;;;;;;23.13;49.29;99911.34;7312978;19;129251;-41
2023/06/04 10:28:41;;;;;;;33.45;2.70;;;;;;;23.10;48.45;99906.38;7313031;19;129526;-40
2023/06/04 10:31:06;;;;;;;38.05;2.55;;;;;;;23.06;49.09;99910.25;7312081;19;129529;-42
2023/06/04 10:33:32;;;;;;;23.70;1.67;;;;;;;23.01;48.47;99909.84;7311186;19;129989;-40
2023/06/04 10:35:57;;;;;;;65.28;3.75;;;;;;;23.02;48.18;99909.69;7312753;19;129794;-39
2023/06/04 10:38:22;;;;;;;28.67;2.20;;;;;;;23.02;47.45;99914.13;7312797;19;128850;-41
2023/06/04 10:40:48;;;;;;;45.33;2.80;;;;;;;23.02;47.90;99914.13;7311187;19;130101;-39
2023/06/04 10:43:15;;;;;;;38.67;2.67;;;;;;;22.98;47.62;99918.00;7309057;19;129795;-38
2023/06/04 10:45:42;;;;;;;33.00;2.05;;;;;;;23.01;48.99;99918.53;7309735;19;128994;-40
2023/06/04 10:48:09;;;;;;;33.22;2.17;;;;;;;23.02;48.99;99920.19;7315964;19;129618;-41
2023/06/04 10:50:48;;;;;;;30.88;2.40;;;;;;;22.91;49.64;99890.66;7315528;19;129278;-41
2023/06/04 10:53:13;;;;;;;36.42;2.38;;;;;;;23.01;48.27;99908.06;7316990;19;129382;-39
2023/06/04 10:55:47;;;;;;;23.83;1.80;;;;;;;22.96;49.21;99899.78;7317813;19;129333;-41
2023/06/04 10:58:12;;;;;;;51.80;3.00;;;;;;;23.04;48.55;99906.94;7317650;19;129166;-40
2023/06/04 11:00:40;;;;;;;33.95;2.38;;;;;;;23.01;48.16;99899.34;7318038;19;130296;-40
2023/06/04 11:03:07;;;;;;;30.70;2.15;;;;;;;22.90;48.10;99889.03;7315759;19;129443;-41
2023/06/04 11:05:36;;;;;;;32.45;2.35;;;;;;;23.00;48.09;99901.16;7317551;19;129315;-37
2023/06/04 11:08:03;;;;;;;38.58;2.40;;;;;;;23.02;48.05;99914.13;7318199;19;130459;-41
2023/06/04 11:10:36;;;;;;;59.17;3.88;;;;;;;22.99;48.08;99909.19;7317021;19;129187;-39
2023/06/04 11:13:03;;;;;;;35.15;2.92;;;;;;;23.01;47.79;99901.97;7313566;19;130964;-41
2023/06/04 11:15:49;;;;;;;27.35;1.90;;;;;;;23.01;49.37;99899.34;7317281;19;128877;-39